sensor_id;sensor_type;location;lat;lon;timestamp;pressure;altitude;pressure_sealevel;temperature;humidity
19831;BME280;10076;52.008;4.708;2022-10-16T00:00:39;100929.09;;;16.40;nan
19831;BME280;10076;52.008;4.708;2022-10-16T00:03:06;100916.78;;;16.20;nan
19831;BME280;10076;52.008;4.708;2022-10-16T00:05:31;100926.47;;;16.11;nan
19831;BME280;10076;52.008;4.708;2022-10-16T00:07:57;100924.06;;;16.46;nan
19831;BME280;10076;52.008;4.708;2022-10-16T00:10:22;100916.66;;;16.31;nan
19831;BME280;10076;52.008;4.708;2022-10-16T00:12:47;100925.44;;;16.22;nan
19831;BME280;10076;52.008;4.708;2022-10-16T00:15:13;100929.00;;;16.32;nan
19831;BME280;10076;52.008;4.708;2022-10-16T00:17:39;100927.44;;;16.29;nan
19831;BME280;10076;52.008;4.708;2022-10-16T00:20:04;100935.56;;;16.37;nan
19831;BME280;10076;52.008;4.708;2022-10-16T00:22:30;100928.25;;;16.20;nan
19831;BME280;10076;52.008;4.708;2022-10-16T00:24:55;100934.16;;;16.14;nan
19831;BME280;10076;52.008;4.708;2022-10-16T00:27:20;100934.19;;;16.33;nan
19831;BME280;10076;52.008;4.708;2022-10-16T00:29:50;100949.56;;;16.20;nan
19831;BME280;10076;52.008;4.708;2022-10-16T00:32:16;100938.09;;;16.29;nan
19831;BME280;10076;52.008;4.708;2022-10-16T00:34:41;100950.00;;;16.25;nan
19831;BME280;10076;52.008;4.708;2022-10-16T00:37:06;100939.19;;;16.27;nan
19831;BME280;10076;52.008;4.708;2022-10-16T00:39:31;100952.78;;;16.05;nan
19831;BME280;10076;52.008;4.708;2022-10-16T00:41:57;100931.06;;;15.90;nan
19831;BME280;10076;52.008;4.708;2022-10-16T00:44:51;100939.03;;;15.81;nan
19831;BME280;10076;52.008;4.708;2022-10-16T00:47:21;100930.34;;;15.70;nan
19831;BME280;10076;52.008;4.708;2022-10-16T00:49:50;100921.22;;;15.63;nan
19831;BME280;10076;52.008;4.708;2022-10-16T00:52:16;100932.47;;;15.85;nan
19831;BME280;10076;52.008;4.708;2022-10-16T00:54:42;100935.09;;;15.66;nan
19831;BME280;10076;52.008;4.708;2022-10-16T00:57:09;100949.13;;;15.68;nan
19831;BME280;10076;52.008;4.708;2022-10-16T00:59:37;100937.50;;;15.79;nan
19831;BME280;10076;52.008;4.708;2022-10-16T01:02:05;100933.59;;;15.73;nan
19831;BME280;10076;52.008;4.708;2022-10-16T01:04:36;100919.00;;;15.87;nan
19831;BME280;10076;52.008;4.708;2022-10-16T01:10:02;100914.25;;;15.81;nan
19831;BME280;10076;52.008;4.708;2022-10-16T01:13:07;100902.75;;;15.71;nan
19831;BME280;10076;52.008;4.708;2022-10-16T01:15:39;100921.78;;;15.66;nan
19831;BME280;10076;52.008;4.708;2022-10-16T01:18:13;100915.94;;;15.82;nan
19831;BME280;10076;52.008;4.708;2022-10-16T01:20:51;100929.38;;;15.89;nan
19831;BME280;10076;52.008;4.708;2022-10-16T01:28:57;100938.91;;;16.01;nan
19831;BME280;10076;52.008;4.708;2022-10-16T01:31:29;100943.69;;;15.89;nan
19831;BME280;10076;52.008;4.708;2022-10-16T01:34:02;100946.47;;;15.68;nan
19831;BME280;10076;52.008;4.708;2022-10-16T01:36:41;100950.09;;;15.67;nan
19831;BME280;10076;52.008;4.708;2022-10-16T01:39:10;100950.94;;;15.68;nan
19831;BME280;10076;52.008;4.708;2022-10-16T01:41:38;100942.22;;;15.66;nan
19831;BME280;10076;52.008;4.708;2022-10-16T01:44:10;100954.53;;;15.38;nan
19831;BME280;10076;52.008;4.708;2022-10-16T01:46:41;100962.22;;;15.41;nan
19831;BME280;10076;52.008;4.708;2022-10-16T01:49:08;100956.78;;;15.52;nan
19831;BME280;10076;52.008;4.708;2022-10-16T01:51:36;100958.63;;;15.52;nan
19831;BME280;10076;52.008;4.708;2022-10-16T01:54:04;100949.78;;;15.42;nan
19831;BME280;10076;52.008;4.708;2022-10-16T01:56:32;100962.75;;;15.35;nan
19831;BME280;10076;52.008;4.708;2022-10-16T01:59:04;100960.13;;;15.45;nan
19831;BME280;10076;52.008;4.708;2022-10-16T02:01:33;100967.41;;;15.33;nan
19831;BME280;10076;52.008;4.708;2022-10-16T02:04:09;100970.44;;;15.29;nan
19831;BME280;10076;52.008;4.708;2022-10-16T02:06:37;100964.69;;;15.24;nan
19831;BME280;10076;52.008;4.708;2022-10-16T02:09:03;100971.09;;;15.61;nan
19831;BME280;10076;52.008;4.708;2022-10-16T02:11:28;100961.72;;;15.66;nan
19831;BME280;10076;52.008;4.708;2022-10-16T02:14:12;100972.63;;;15.54;nan
19831;BME280;10076;52.008;4.708;2022-10-16T02:16:42;100981.59;;;15.53;nan
19831;BME280;10076;52.008;4.708;2022-10-16T02:19:08;100974.69;;;15.41;nan
19831;BME280;10076;52.008;4.708;2022-10-16T02:21:42;100979.88;;;15.42;nan
19831;BME280;10076;52.008;4.708;2022-10-16T02:25:03;100978.38;;;15.49;nan
19831;BME280;10076;52.008;4.708;2022-10-16T02:27:10;100980.91;;;15.60;nan
19831;BME280;10076;52.008;4.708;2022-10-16T02:29:40;100979.38;;;15.58;nan
19831;BME280;10076;52.008;4.708;2022-10-16T02:32:10;100973.47;;;15.54;nan
19831;BME280;10076;52.008;4.708;2022-10-16T02:34:39;100977.53;;;15.58;nan
19831;BME280;10076;52.008;4.708;2022-10-16T02:37:06;100978.09;;;15.62;nan
19831;BME280;10076;52.008;4.708;2022-10-16T02:39:32;100981.19;;;15.67;nan
19831;BME280;10076;52.008;4.708;2022-10-16T02:41:58;100981.63;;;15.62;nan
19831;BME280;10076;52.008;4.708;2022-10-16T02:44:23;100976.94;;;15.45;nan
19831;BME280;10076;52.008;4.708;2022-10-16T02:46:49;100987.50;;;15.56;nan
19831;BME280;10076;52.008;4.708;2022-10-16T02:49:14;100978.41;;;15.78;nan
19831;BME280;10076;52.008;4.708;2022-10-16T02:51:40;100980.34;;;15.57;nan
19831;BME280;10076;52.008;4.708;2022-10-16T02:54:05;100974.00;;;15.48;nan
19831;BME280;10076;52.008;4.708;2022-10-16T02:56:30;100963.50;;;15.47;nan
19831;BME280;10076;52.008;4.708;2022-10-16T02:58:56;100956.81;;;15.62;nan
19831;BME280;10076;52.008;4.708;2022-10-16T03:01:22;100959.03;;;15.57;nan
19831;BME280;10076;52.008;4.708;2022-10-16T03:03:48;100954.88;;;15.64;nan
19831;BME280;10076;52.008;4.708;2022-10-16T03:06:13;100964.66;;;15.54;nan
19831;BME280;10076;52.008;4.708;2022-10-16T03:08:38;100970.06;;;15.43;nan
19831;BME280;10076;52.008;4.708;2022-10-16T03:11:04;100973.53;;;15.34;nan
19831;BME280;10076;52.008;4.708;2022-10-16T03:13:29;100979.84;;;15.33;nan
19831;BME280;10076;52.008;4.708;2022-10-16T03:15:55;100981.41;;;15.45;nan
19831;BME280;10076;52.008;4.708;2022-10-16T03:18:20;100989.94;;;15.39;nan
19831;BME280;10076;52.008;4.708;2022-10-16T03:20:45;101004.19;;;15.28;nan
19831;BME280;10076;52.008;4.708;2022-10-16T03:23:11;100993.97;;;15.24;nan
19831;BME280;10076;52.008;4.708;2022-10-16T03:25:36;101000.16;;;15.34;nan
19831;BME280;10076;52.008;4.708;2022-10-16T03:28:02;100999.78;;;15.48;nan
19831;BME280;10076;52.008;4.708;2022-10-16T03:30:28;100999.28;;;15.24;nan
19831;BME280;10076;52.008;4.708;2022-10-16T03:32:53;101006.00;;;15.28;nan
19831;BME280;10076;52.008;4.708;2022-10-16T03:35:23;101008.28;;;15.32;nan
19831;BME280;10076;52.008;4.708;2022-10-16T03:37:48;101008.75;;;15.47;nan
19831;BME280;10076;52.008;4.708;2022-10-16T03:40:14;101011.91;;;15.31;nan
19831;BME280;10076;52.008;4.708;2022-10-16T03:42:42;101017.38;;;15.30;nan
19831;BME280;10076;52.008;4.708;2022-10-16T03:45:07;101021.63;;;15.21;nan
19831;BME280;10076;52.008;4.708;2022-10-16T03:47:33;101014.81;;;15.08;nan
19831;BME280;10076;52.008;4.708;2022-10-16T03:49:59;101018.72;;;15.24;nan
19831;BME280;10076;52.008;4.708;2022-10-16T03:52:24;101023.13;;;15.35;nan
19831;BME280;10076;52.008;4.708;2022-10-16T03:54:50;101024.88;;;15.55;nan
19831;BME280;10076;52.008;4.708;2022-10-16T03:57:15;101029.06;;;15.48;nan
19831;BME280;10076;52.008;4.708;2022-10-16T03:59:40;101032.47;;;15.29;nan
19831;BME280;10076;52.008;4.708;2022-10-16T04:02:06;101035.56;;;15.25;nan
19831;BME280;10076;52.008;4.708;2022-10-16T04:04:31;101029.31;;;15.45;nan
19831;BME280;10076;52.008;4.708;2022-10-16T04:06:56;101036.06;;;15.49;nan
19831;BME280;10076;52.008;4.708;2022-10-16T04:09:21;101041.91;;;15.43;nan
19831;BME280;10076;52.008;4.708;2022-10-16T04:11:47;101047.22;;;15.33;nan
19831;BME280;10076;52.008;4.708;2022-10-16T04:14:12;101046.94;;;15.36;nan
19831;BME280;10076;52.008;4.708;2022-10-16T04:16:37;101046.88;;;15.27;nan
19831;BME280;10076;52.008;4.708;2022-10-16T04:19:03;101053.81;;;15.18;nan
19831;BME280;10076;52.008;4.708;2022-10-16T04:21:28;101056.75;;;15.36;nan
19831;BME280;10076;52.008;4.708;2022-10-16T04:23:53;101055.00;;;15.25;nan
19831;BME280;10076;52.008;4.708;2022-10-16T04:26:19;101059.59;;;15.23;nan
19831;BME280;10076;52.008;4.708;2022-10-16T04:28:44;101064.19;;;15.21;nan
19831;BME280;10076;52.008;4.708;2022-10-16T04:31:09;101049.88;;;15.13;nan
19831;BME280;10076;52.008;4.708;2022-10-16T04:33:35;101067.25;;;15.37;nan
19831;BME280;10076;52.008;4.708;2022-10-16T04:36:01;101065.13;;;15.31;nan
19831;BME280;10076;52.008;4.708;2022-10-16T04:38:26;101079.53;;;15.29;nan
19831;BME280;10076;52.008;4.708;2022-10-16T04:40:52;101076.44;;;15.24;nan
19831;BME280;10076;52.008;4.708;2022-10-16T04:43:17;101082.34;;;15.17;nan
19831;BME280;10076;52.008;4.708;2022-10-16T04:45:43;101087.81;;;15.15;nan
19831;BME280;10076;52.008;4.708;2022-10-16T04:48:08;101092.59;;;15.21;nan
19831;BME280;10076;52.008;4.708;2022-10-16T04:50:33;101088.94;;;15.33;nan
19831;BME280;10076;52.008;4.708;2022-10-16T04:52:59;101109.53;;;15.20;nan
19831;BME280;10076;52.008;4.708;2022-10-16T04:55:25;101103.19;;;15.32;nan
19831;BME280;10076;52.008;4.708;2022-10-16T04:57:50;101104.50;;;15.37;nan
19831;BME280;10076;52.008;4.708;2022-10-16T05:00:15;101110.94;;;15.35;nan
19831;BME280;10076;52.008;4.708;2022-10-16T05:02:41;101112.78;;;15.44;nan
19831;BME280;10076;52.008;4.708;2022-10-16T05:05:06;101124.09;;;15.36;nan
19831;BME280;10076;52.008;4.708;2022-10-16T05:07:32;101123.69;;;15.20;nan
19831;BME280;10076;52.008;4.708;2022-10-16T05:09:57;101123.81;;;15.30;nan
19831;BME280;10076;52.008;4.708;2022-10-16T05:12:23;101131.81;;;15.19;nan
19831;BME280;10076;52.008;4.708;2022-10-16T05:14:48;101129.19;;;15.08;nan
19831;BME280;10076;52.008;4.708;2022-10-16T05:17:13;101137.22;;;15.28;nan
19831;BME280;10076;52.008;4.708;2022-10-16T05:19:38;101136.28;;;15.18;nan
19831;BME280;10076;52.008;4.708;2022-10-16T05:22:04;101135.47;;;15.38;nan
19831;BME280;10076;52.008;4.708;2022-10-16T05:24:29;101138.25;;;15.37;nan
19831;BME280;10076;52.008;4.708;2022-10-16T05:26:54;101143.31;;;15.40;nan
19831;BME280;10076;52.008;4.708;2022-10-16T05:29:20;101147.47;;;15.33;nan
19831;BME280;10076;52.008;4.708;2022-10-16T05:31:45;101149.28;;;15.53;nan
19831;BME280;10076;52.008;4.708;2022-10-16T05:34:10;101154.41;;;15.45;nan
19831;BME280;10076;52.008;4.708;2022-10-16T05:36:36;101152.09;;;15.20;nan
19831;BME280;10076;52.008;4.708;2022-10-16T05:39:01;101161.44;;;15.25;nan
19831;BME280;10076;52.008;4.708;2022-10-16T05:41:27;101173.75;;;15.26;nan
19831;BME280;10076;52.008;4.708;2022-10-16T05:43:52;101172.66;;;15.29;nan
19831;BME280;10076;52.008;4.708;2022-10-16T05:46:18;101175.69;;;15.24;nan
19831;BME280;10076;52.008;4.708;2022-10-16T05:48:44;101178.88;;;15.39;nan
19831;BME280;10076;52.008;4.708;2022-10-16T05:51:12;101186.41;;;15.34;nan
19831;BME280;10076;52.008;4.708;2022-10-16T05:53:38;101183.88;;;15.32;nan
19831;BME280;10076;52.008;4.708;2022-10-16T05:56:05;101188.56;;;15.40;nan
19831;BME280;10076;52.008;4.708;2022-10-16T05:58:35;101182.13;;;15.22;nan
19831;BME280;10076;52.008;4.708;2022-10-16T06:01:10;101177.69;;;15.52;nan
19831;BME280;10076;52.008;4.708;2022-10-16T06:03:36;101185.09;;;15.49;nan
19831;BME280;10076;52.008;4.708;2022-10-16T06:06:12;101185.09;;;15.28;nan
19831;BME280;10076;52.008;4.708;2022-10-16T06:08:38;101189.81;;;15.36;nan
19831;BME280;10076;52.008;4.708;2022-10-16T06:11:05;101200.03;;;15.40;nan
19831;BME280;10076;52.008;4.708;2022-10-16T06:13:31;101204.97;;;15.45;nan
19831;BME280;10076;52.008;4.708;2022-10-16T06:15:58;101204.38;;;15.41;nan
19831;BME280;10076;52.008;4.708;2022-10-16T06:18:25;101197.06;;;15.34;nan
19831;BME280;10076;52.008;4.708;2022-10-16T06:20:50;101197.97;;;15.44;nan
19831;BME280;10076;52.008;4.708;2022-10-16T06:23:15;101197.66;;;15.58;nan
19831;BME280;10076;52.008;4.708;2022-10-16T06:25:41;101205.75;;;15.36;nan
19831;BME280;10076;52.008;4.708;2022-10-16T06:28:06;101206.00;;;15.33;nan
19831;BME280;10076;52.008;4.708;2022-10-16T06:30:31;101212.50;;;15.40;nan
19831;BME280;10076;52.008;4.708;2022-10-16T06:32:56;101209.13;;;15.38;nan
19831;BME280;10076;52.008;4.708;2022-10-16T06:35:22;101199.88;;;15.21;nan
19831;BME280;10076;52.008;4.708;2022-10-16T06:37:47;101204.00;;;15.25;nan
19831;BME280;10076;52.008;4.708;2022-10-16T06:40:12;101204.66;;;15.38;nan
19831;BME280;10076;52.008;4.708;2022-10-16T06:42:39;101208.47;;;15.45;nan
19831;BME280;10076;52.008;4.708;2022-10-16T06:45:05;101193.59;;;15.43;nan
19831;BME280;10076;52.008;4.708;2022-10-16T06:47:30;101200.56;;;15.55;nan
19831;BME280;10076;52.008;4.708;2022-10-16T06:49:55;101209.84;;;15.40;nan
19831;BME280;10076;52.008;4.708;2022-10-16T06:52:21;101219.75;;;15.58;nan
19831;BME280;10076;52.008;4.708;2022-10-16T06:54:46;101221.84;;;15.34;nan
19831;BME280;10076;52.008;4.708;2022-10-16T06:57:11;101235.56;;;15.50;nan
19831;BME280;10076;52.008;4.708;2022-10-16T06:59:37;101240.69;;;15.63;nan
19831;BME280;10076;52.008;4.708;2022-10-16T07:02:02;101255.53;;;15.45;nan
19831;BME280;10076;52.008;4.708;2022-10-16T07:04:27;101249.91;;;15.59;nan
19831;BME280;10076;52.008;4.708;2022-10-16T07:06:52;101254.06;;;15.52;nan
19831;BME280;10076;52.008;4.708;2022-10-16T07:09:18;101265.81;;;15.49;nan
19831;BME280;10076;52.008;4.708;2022-10-16T07:11:43;101266.13;;;15.56;nan
19831;BME280;10076;52.008;4.708;2022-10-16T07:14:16;101274.19;;;15.45;nan
19831;BME280;10076;52.008;4.708;2022-10-16T07:16:42;101283.06;;;15.55;nan
19831;BME280;10076;52.008;4.708;2022-10-16T07:19:08;101288.16;;;15.58;nan
19831;BME280;10076;52.008;4.708;2022-10-16T07:21:34;101297.41;;;15.43;nan
19831;BME280;10076;52.008;4.708;2022-10-16T07:24:01;101302.47;;;15.46;nan
19831;BME280;10076;52.008;4.708;2022-10-16T07:26:28;101309.91;;;15.63;nan
19831;BME280;10076;52.008;4.708;2022-10-16T07:28:53;101309.69;;;15.55;nan
19831;BME280;10076;52.008;4.708;2022-10-16T07:31:21;101323.28;;;15.52;nan
19831;BME280;10076;52.008;4.708;2022-10-16T07:33:48;101329.84;;;15.68;nan
19831;BME280;10076;52.008;4.708;2022-10-16T07:36:14;101331.09;;;15.85;nan
19831;BME280;10076;52.008;4.708;2022-10-16T07:38:40;101329.97;;;15.87;nan
19831;BME280;10076;52.008;4.708;2022-10-16T07:41:09;101343.56;;;16.04;nan
19831;BME280;10076;52.008;4.708;2022-10-16T07:43:36;101352.31;;;15.95;nan
19831;BME280;10076;52.008;4.708;2022-10-16T07:46:02;101348.69;;;15.96;nan
19831;BME280;10076;52.008;4.708;2022-10-16T07:48:29;101347.91;;;16.26;nan
19831;BME280;10076;52.008;4.708;2022-10-16T07:51:02;101349.56;;;16.17;nan
19831;BME280;10076;52.008;4.708;2022-10-16T07:53:28;101350.41;;;16.38;nan
19831;BME280;10076;52.008;4.708;2022-10-16T07:56:00;101352.88;;;16.30;nan
19831;BME280;10076;52.008;4.708;2022-10-16T07:58:27;101357.00;;;16.44;nan
19831;BME280;10076;52.008;4.708;2022-10-16T08:00:53;101371.38;;;16.52;nan
19831;BME280;10076;52.008;4.708;2022-10-16T08:03:18;101371.75;;;16.68;nan
19831;BME280;10076;52.008;4.708;2022-10-16T08:05:43;101378.97;;;16.57;nan
19831;BME280;10076;52.008;4.708;2022-10-16T08:08:13;101374.25;;;16.69;nan
19831;BME280;10076;52.008;4.708;2022-10-16T08:10:38;101377.06;;;16.68;nan
19831;BME280;10076;52.008;4.708;2022-10-16T08:13:03;101380.69;;;16.97;nan
19831;BME280;10076;52.008;4.708;2022-10-16T08:15:29;101390.28;;;17.09;nan
19831;BME280;10076;52.008;4.708;2022-10-16T08:17:59;101389.75;;;17.15;nan
19831;BME280;10076;52.008;4.708;2022-10-16T08:20:25;101387.91;;;17.15;nan
19831;BME280;10076;52.008;4.708;2022-10-16T08:22:51;101395.88;;;17.45;nan
19831;BME280;10076;52.008;4.708;2022-10-16T08:25:16;101391.91;;;17.39;nan
19831;BME280;10076;52.008;4.708;2022-10-16T08:27:41;101395.28;;;17.32;nan
19831;BME280;10076;52.008;4.708;2022-10-16T08:30:07;101402.47;;;17.50;nan
19831;BME280;10076;52.008;4.708;2022-10-16T08:32:33;101395.78;;;17.75;nan
19831;BME280;10076;52.008;4.708;2022-10-16T08:34:58;101410.53;;;17.88;nan
19831;BME280;10076;52.008;4.708;2022-10-16T08:37:24;101396.75;;;18.21;nan
19831;BME280;10076;52.008;4.708;2022-10-16T08:39:50;101406.91;;;18.72;nan
19831;BME280;10076;52.008;4.708;2022-10-16T08:42:25;101423.22;;;19.25;nan
19831;BME280;10076;52.008;4.708;2022-10-16T08:47:55;101420.50;;;19.96;nan
19831;BME280;10076;52.008;4.708;2022-10-16T08:50:30;101415.78;;;20.32;nan
19831;BME280;10076;52.008;4.708;2022-10-16T08:52:59;101423.13;;;20.48;nan
19831;BME280;10076;52.008;4.708;2022-10-16T08:55:37;101421.38;;;20.82;nan
19831;BME280;10076;52.008;4.708;2022-10-16T08:58:10;101424.34;;;21.45;nan
19831;BME280;10076;52.008;4.708;2022-10-16T09:00:37;101419.56;;;21.80;nan
19831;BME280;10076;52.008;4.708;2022-10-16T09:08:54;101451.06;;;22.04;nan
19831;BME280;10076;52.008;4.708;2022-10-16T09:16:56;101447.59;;;21.70;nan
19831;BME280;10076;52.008;4.708;2022-10-16T09:19:31;101443.16;;;22.10;nan
19831;BME280;10076;52.008;4.708;2022-10-16T09:22:04;101450.41;;;22.41;nan
19831;BME280;10076;52.008;4.708;2022-10-16T09:24:34;101450.88;;;22.93;nan
19831;BME280;10076;52.008;4.708;2022-10-16T09:27:00;101459.53;;;23.26;nan
19831;BME280;10076;52.008;4.708;2022-10-16T09:29:25;101458.91;;;23.16;nan
19831;BME280;10076;52.008;4.708;2022-10-16T09:31:51;101457.22;;;23.15;nan
19831;BME280;10076;52.008;4.708;2022-10-16T09:36:52;101462.59;;;23.92;nan
19831;BME280;10076;52.008;4.708;2022-10-16T09:39:17;101464.03;;;24.02;nan
19831;BME280;10076;52.008;4.708;2022-10-16T09:41:44;101464.66;;;24.12;nan
19831;BME280;10076;52.008;4.708;2022-10-16T09:44:25;101472.03;;;24.63;nan
19831;BME280;10076;52.008;4.708;2022-10-16T09:47:15;101473.00;;;24.84;nan
19831;BME280;10076;52.008;4.708;2022-10-16T09:49:56;101474.59;;;25.65;nan
19831;BME280;10076;52.008;4.708;2022-10-16T09:52:23;101478.91;;;26.09;nan
19831;BME280;10076;52.008;4.708;2022-10-16T09:54:50;101484.88;;;26.61;nan
19831;BME280;10076;52.008;4.708;2022-10-16T09:57:16;101478.56;;;27.76;nan
19831;BME280;10076;52.008;4.708;2022-10-16T09:59:59;101483.53;;;28.19;nan
19831;BME280;10076;52.008;4.708;2022-10-16T10:02:34;101485.63;;;28.37;nan
19831;BME280;10076;52.008;4.708;2022-10-16T10:05:01;101489.63;;;28.66;nan
19831;BME280;10076;52.008;4.708;2022-10-16T10:07:31;101486.72;;;28.74;nan
19831;BME280;10076;52.008;4.708;2022-10-16T10:10:02;101490.91;;;28.70;nan
19831;BME280;10076;52.008;4.708;2022-10-16T10:12:28;101488.97;;;27.73;nan
19831;BME280;10076;52.008;4.708;2022-10-16T10:14:58;101486.25;;;27.32;nan
19831;BME280;10076;52.008;4.708;2022-10-16T10:17:29;101489.63;;;26.59;nan
19831;BME280;10076;52.008;4.708;2022-10-16T10:20:18;101484.56;;;26.77;nan
19831;BME280;10076;52.008;4.708;2022-10-16T10:22:46;101489.50;;;28.02;nan
19831;BME280;10076;52.008;4.708;2022-10-16T10:27:43;101505.47;;;28.18;nan
19831;BME280;10076;52.008;4.708;2022-10-16T10:30:24;101513.53;;;27.58;nan
19831;BME280;10076;52.008;4.708;2022-10-16T10:35:47;101513.31;;;28.00;nan
19831;BME280;10076;52.008;4.708;2022-10-16T10:40:49;101526.47;;;28.03;nan
19831;BME280;10076;52.008;4.708;2022-10-16T10:45:58;101529.25;;;27.35;nan
19831;BME280;10076;52.008;4.708;2022-10-16T10:51:53;101521.38;;;28.40;nan
19831;BME280;10076;52.008;4.708;2022-10-16T10:54:51;101527.56;;;27.62;nan
19831;BME280;10076;52.008;4.708;2022-10-16T11:01:08;101542.78;;;29.40;nan
19831;BME280;10076;52.008;4.708;2022-10-16T11:06:30;101544.88;;;29.19;nan
19831;BME280;10076;52.008;4.708;2022-10-16T11:09:09;101542.34;;;29.24;nan
19831;BME280;10076;52.008;4.708;2022-10-16T11:11:46;101555.97;;;30.12;nan
19831;BME280;10076;52.008;4.708;2022-10-16T11:14:19;101551.13;;;30.82;nan
19831;BME280;10076;52.008;4.708;2022-10-16T11:16:53;101553.13;;;31.42;nan
19831;BME280;10076;52.008;4.708;2022-10-16T11:19:38;101565.75;;;32.62;nan
19831;BME280;10076;52.008;4.708;2022-10-16T11:22:16;101556.00;;;33.06;nan
19831;BME280;10076;52.008;4.708;2022-10-16T11:24:55;101565.19;;;32.71;nan
19831;BME280;10076;52.008;4.708;2022-10-16T11:27:52;101567.53;;;33.20;nan
19831;BME280;10076;52.008;4.708;2022-10-16T11:30:22;101558.97;;;33.16;nan
19831;BME280;10076;52.008;4.708;2022-10-16T11:35:41;101560.75;;;30.85;nan
19831;BME280;10076;52.008;4.708;2022-10-16T11:38:27;101565.13;;;29.68;nan
19831;BME280;10076;52.008;4.708;2022-10-16T11:41:00;101571.69;;;29.35;nan
19831;BME280;10076;52.008;4.708;2022-10-16T11:43:33;101570.31;;;29.76;nan
19831;BME280;10076;52.008;4.708;2022-10-16T11:46:07;101569.00;;;30.04;nan
19831;BME280;10076;52.008;4.708;2022-10-16T11:51:40;101565.59;;;32.27;nan
19831;BME280;10076;52.008;4.708;2022-10-16T11:54:22;101568.22;;;31.45;nan
19831;BME280;10076;52.008;4.708;2022-10-16T11:56:51;101570.13;;;31.02;nan
19831;BME280;10076;52.008;4.708;2022-10-16T11:59:38;101568.38;;;31.50;nan
19831;BME280;10076;52.008;4.708;2022-10-16T12:07:32;101589.03;;;32.94;nan
19831;BME280;10076;52.008;4.708;2022-10-16T12:10:21;101593.28;;;33.76;nan
19831;BME280;10076;52.008;4.708;2022-10-16T12:12:47;101595.38;;;33.05;nan
19831;BME280;10076;52.008;4.708;2022-10-16T12:15:23;101591.22;;;32.44;nan
19831;BME280;10076;52.008;4.708;2022-10-16T12:17:49;101587.84;;;32.31;nan
19831;BME280;10076;52.008;4.708;2022-10-16T12:20:22;101583.59;;;31.63;nan
19831;BME280;10076;52.008;4.708;2022-10-16T12:22:55;101587.63;;;31.61;nan
19831;BME280;10076;52.008;4.708;2022-10-16T12:25:39;101587.16;;;31.64;nan
19831;BME280;10076;52.008;4.708;2022-10-16T12:28:21;101578.94;;;30.67;nan
19831;BME280;10076;52.008;4.708;2022-10-16T12:30:54;101585.53;;;30.83;nan
19831;BME280;10076;52.008;4.708;2022-10-16T12:36:34;101584.16;;;31.90;nan
19831;BME280;10076;52.008;4.708;2022-10-16T12:39:00;101594.81;;;32.45;nan
19831;BME280;10076;52.008;4.708;2022-10-16T12:41:31;101596.97;;;32.25;nan
19831;BME280;10076;52.008;4.708;2022-10-16T12:43:58;101594.69;;;32.40;nan
19831;BME280;10076;52.008;4.708;2022-10-16T12:49:51;101588.44;;;31.19;nan
19831;BME280;10076;52.008;4.708;2022-10-16T12:51:51;101594.13;;;30.87;nan
19831;BME280;10076;52.008;4.708;2022-10-16T12:54:29;101597.91;;;30.55;nan
19831;BME280;10076;52.008;4.708;2022-10-16T12:59:59;101583.78;;;29.32;nan
19831;BME280;10076;52.008;4.708;2022-10-16T13:10:23;101597.00;;;28.90;nan
19831;BME280;10076;52.008;4.708;2022-10-16T13:13:10;101598.72;;;28.31;nan
19831;BME280;10076;52.008;4.708;2022-10-16T13:21:18;101598.41;;;27.19;nan
19831;BME280;10076;52.008;4.708;2022-10-16T13:23:55;101616.94;;;26.73;nan
19831;BME280;10076;52.008;4.708;2022-10-16T13:29:00;101619.75;;;26.45;nan
19831;BME280;10076;52.008;4.708;2022-10-16T13:31:27;101621.38;;;26.60;nan
19831;BME280;10076;52.008;4.708;2022-10-16T13:33:56;101603.38;;;26.03;nan
19831;BME280;10076;52.008;4.708;2022-10-16T13:36:34;101600.59;;;25.82;nan
19831;BME280;10076;52.008;4.708;2022-10-16T13:39:06;101608.09;;;25.29;nan
19831;BME280;10076;52.008;4.708;2022-10-16T13:41:31;101599.84;;;24.86;nan
19831;BME280;10076;52.008;4.708;2022-10-16T13:43:57;101605.84;;;24.73;nan
19831;BME280;10076;52.008;4.708;2022-10-16T13:46:23;101611.34;;;25.02;nan
19831;BME280;10076;52.008;4.708;2022-10-16T13:49:03;101621.38;;;24.94;nan
19831;BME280;10076;52.008;4.708;2022-10-16T13:51:29;101621.44;;;24.63;nan
19831;BME280;10076;52.008;4.708;2022-10-16T13:53:56;101622.03;;;24.51;nan
19831;BME280;10076;52.008;4.708;2022-10-16T13:56:25;101614.78;;;24.51;nan
19831;BME280;10076;52.008;4.708;2022-10-16T13:59:22;101611.72;;;24.54;nan
19831;BME280;10076;52.008;4.708;2022-10-16T14:01:48;101613.16;;;24.42;nan
19831;BME280;10076;52.008;4.708;2022-10-16T14:04:15;101616.66;;;24.13;nan
19831;BME280;10076;52.008;4.708;2022-10-16T14:06:43;101607.25;;;24.09;nan
19831;BME280;10076;52.008;4.708;2022-10-16T14:11:53;101608.34;;;24.22;nan
19831;BME280;10076;52.008;4.708;2022-10-16T14:14:19;101607.03;;;23.80;nan
19831;BME280;10076;52.008;4.708;2022-10-16T14:16:45;101601.94;;;23.85;nan
19831;BME280;10076;52.008;4.708;2022-10-16T14:19:29;101600.28;;;23.76;nan
19831;BME280;10076;52.008;4.708;2022-10-16T14:21:56;101599.94;;;23.79;nan
19831;BME280;10076;52.008;4.708;2022-10-16T14:26:50;101603.31;;;23.65;nan
19831;BME280;10076;52.008;4.708;2022-10-16T14:29:18;101601.38;;;23.35;nan
19831;BME280;10076;52.008;4.708;2022-10-16T14:32:01;101599.03;;;23.32;nan
19831;BME280;10076;52.008;4.708;2022-10-16T14:39:49;101601.41;;;23.03;nan
19831;BME280;10076;52.008;4.708;2022-10-16T14:42:17;101606.97;;;23.10;nan
19831;BME280;10076;52.008;4.708;2022-10-16T14:44:44;101598.19;;;23.08;nan
19831;BME280;10076;52.008;4.708;2022-10-16T14:47:13;101600.72;;;23.17;nan
19831;BME280;10076;52.008;4.708;2022-10-16T14:49:41;101608.47;;;23.20;nan
19831;BME280;10076;52.008;4.708;2022-10-16T14:52:11;101603.22;;;23.35;nan